Wetterdaten: Woche 23.11.09 - 29.11.09 (KW48)
Datum Zeit Temp. Innen Temp. Aussen UV X Diff Temp. Feuchte Inne Feuchte Auss Sonnenschein Luftdruck Regen ab 0,1 Wind Sonnenschein Windben
23.11.2009 00:00 16,2 C 9,8 C 0,0 UV-I 0,0 C 54 % 78 % 0 % 1006,0 hPa 0,2 l/m 7,2 km/h (2 Bft) 0,00 h 9,6 km/h (2 Bft)
23.11.2009 01:00 16,2 C 9,9 C 0,0 UV-I 0,0 C 55 % 79 % 0 % 1005,3 hPa 0,1 l/m 7,6 km/h (2 Bft) 0,00 h 10,8 km/h (2 Bft)
23.11.2009 02:00 16,2 C 10,1 C 0,0 UV-I 0,0 C 54 % 74 % 0 % 1005,0 hPa 0,0 l/m 9,8 km/h (2 Bft) 0,00 h 16,3 km/h (3 Bft)
23.11.2009 03:00 16,1 C 10,3 C 0,0 UV-I 0,0 C 53 % 73 % 0 % 1004,4 hPa 0,0 l/m 9,9 km/h (2 Bft) 0,00 h 13,1 km/h (3 Bft)
23.11.2009 04:00 16,0 C 10,2 C 0,0 UV-I 0,0 C 52 % 73 % 0 % 1004,3 hPa 0,0 l/m 11,1 km/h (2 Bft) 0,00 h 14,4 km/h (3 Bft)
23.11.2009 05:00 15,9 C 10,0 C 0,0 UV-I 0,0 C 52 % 75 % 0 % 1004,0 hPa 0,4 l/m 12,9 km/h (3 Bft) 0,00 h 20,2 km/h (4 Bft)
23.11.2009 06:00 15,8 C 9,1 C 0,0 UV-I 0,0 C 55 % 83 % 0 % 1003,8 hPa 0,3 l/m 12,1 km/h (2 Bft) 0,00 h 16,9 km/h (3 Bft)
23.11.2009 07:00 15,6 C 9,0 C 0,0 UV-I 0,0 C 55 % 83 % 0 % 1003,9 hPa 0,0 l/m 11,6 km/h (2 Bft) 0,00 h 17,4 km/h (3 Bft)
23.11.2009 08:00 15,6 C 9,5 C 0,0 UV-I 0,0 C 56 % 83 % 0 % 1003,8 hPa 0,0 l/m 11,7 km/h (2 Bft) 0,00 h 15,6 km/h (3 Bft)
23.11.2009 09:00 15,7 C 9,7 C 0,0 UV-I 0,0 C 56 % 84 % 0 % 1003,8 hPa 0,8 l/m 11,7 km/h (2 Bft) 0,00 h 15,9 km/h (3 Bft)
23.11.2009 10:00 15,8 C 9,3 C 0,0 UV-I 0,0 C 58 % 89 % 0 % 1003,3 hPa 2,3 l/m 9,3 km/h (2 Bft) 0,00 h 12,5 km/h (3 Bft)
23.11.2009 11:00 15,7 C 9,4 C 0,0 UV-I 0,0 C 60 % 92 % 0 % 1002,4 hPa 5,8 l/m 8,4 km/h (2 Bft) 0,00 h 11,1 km/h (2 Bft)
23.11.2009 12:00 15,8 C 9,8 C 0,0 UV-I 0,0 C 61 % 93 % 0 % 1000,6 hPa 5,1 l/m 9,0 km/h (2 Bft) 0,00 h 13,6 km/h (3 Bft)
23.11.2009 13:00 15,8 C 11,1 C 0,1 UV-I 0,0 C 63 % 90 % 0 % 999,5 hPa 2,0 l/m 14,5 km/h (3 Bft) 0,00 h 22,6 km/h (4 Bft)
23.11.2009 14:00 16,0 C 11,6 C 0,0 UV-I 0,0 C 64 % 91 % 0 % 999,4 hPa 3,3 l/m 13,2 km/h (3 Bft) 0,00 h 18,5 km/h (3 Bft)
23.11.2009 15:00 16,0 C 11,8 C 0,0 UV-I 0,0 C 65 % 91 % 0 % 998,9 hPa 0,6 l/m 14,3 km/h (3 Bft) 0,00 h 18,8 km/h (3 Bft)
23.11.2009 16:00 15,9 C 12,0 C 0,0 UV-I 0,0 C 66 % 89 % 0 % 999,1 hPa 1,2 l/m 13,8 km/h (3 Bft) 0,00 h 18,2 km/h (3 Bft)
23.11.2009 17:00 15,9 C 11,8 C 0,0 UV-I 0,0 C 66 % 91 % 0 % 998,2 hPa 0,7 l/m 11,4 km/h (2 Bft) 0,00 h 16,4 km/h (3 Bft)
23.11.2009 18:00 16,1 C 12,1 C 0,0 UV-I 0,0 C 66 % 90 % 0 % 997,7 hPa 1,2 l/m 13,0 km/h (3 Bft) 0,00 h 17,9 km/h (3 Bft)
23.11.2009 19:00 16,1 C 11,7 C 0,0 UV-I 0,0 C 67 % 88 % 0 % 997,7 hPa 6,1 l/m 14,1 km/h (3 Bft) 0,00 h 18,7 km/h (3 Bft)
23.11.2009 20:00 15,9 C 11,3 C 0,0 UV-I 0,0 C 64 % 86 % 0 % 998,2 hPa 0,1 l/m 10,2 km/h (2 Bft) 0,00 h 14,2 km/h (3 Bft)
23.11.2009 21:00 15,9 C 11,9 C 0,0 UV-I 0,0 C 64 % 84 % 0 % 999,3 hPa 0,0 l/m 9,5 km/h (2 Bft) 0,00 h 12,9 km/h (3 Bft)
23.11.2009 22:00 15,9 C 12,0 C 0,0 UV-I 0,0 C 63 % 81 % 0 % 1000,8 hPa 0,0 l/m 7,9 km/h (2 Bft) 0,00 h 10,8 km/h (2 Bft)
23.11.2009 23:00 16,1 C 11,9 C 0,0 UV-I 0,0 C 62 % 79 % 0 % 1001,9 hPa 0,0 l/m 7,6 km/h (2 Bft) 0,00 h 10,0 km/h (2 Bft)
24.11.2009 00:00 16,2 C 11,9 C 0,0 UV-I 0,0 C 61 % 78 % 0 % 1003,2 hPa 0,0 l/m 9,0 km/h (2 Bft) 0,00 h 13,4 km/h (3 Bft)
24.11.2009 01:00 16,2 C 11,8 C 0,0 UV-I 0,0 C 60 % 78 % 0 % 1004,2 hPa 0,0 l/m 7,0 km/h (2 Bft) 0,00 h 9,6 km/h (2 Bft)
24.11.2009 02:00 16,2 C 11,5 C 0,0 UV-I 0,0 C 59 % 77 % 0 % 1004,9 hPa 0,0 l/m 7,8 km/h (2 Bft) 0,00 h 11,4 km/h (2 Bft)
24.11.2009 03:00 16,1 C 11,1 C 0,0 UV-I 0,0 C 59 % 78 % 0 % 1005,8 hPa 0,0 l/m 7,7 km/h (2 Bft) 0,00 h 10,9 km/h (2 Bft)
24.11.2009 04:00 16,0 C 10,5 C 0,0 UV-I 0,0 C 59 % 81 % 0 % 1006,9 hPa 0,0 l/m 6,9 km/h (2 Bft) 0,00 h 8,3 km/h (2 Bft)
24.11.2009 05:00 16,0 C 10,0 C 0,0 UV-I 0,0 C 59 % 83 % 0 % 1007,7 hPa 0,0 l/m 5,7 km/h (1 Bft) 0,00 h 7,5 km/h (2 Bft)
24.11.2009 06:00 16,0 C 10,0 C 0,0 UV-I 0,0 C 59 % 84 % 0 % 1008,0 hPa 0,0 l/m 6,6 km/h (2 Bft) 0,00 h 8,4 km/h (2 Bft)
24.11.2009 07:00 16,0 C 10,2 C 0,0 UV-I 0,0 C 59 % 84 % 0 % 1008,5 hPa 0,0 l/m 5,6 km/h (1 Bft) 0,00 h 7,9 km/h (2 Bft)
24.11.2009 08:00 16,0 C 9,9 C 0,0 UV-I 0,0 C 59 % 85 % 0 % 1009,1 hPa 0,0 l/m 4,2 km/h (1 Bft) 0,00 h 5,8 km/h (2 Bft)
24.11.2009 09:00 16,0 C 9,9 C 0,1 UV-I 0,0 C 59 % 85 % 0 % 1009,4 hPa 0,0 l/m 4,9 km/h (1 Bft) 0,00 h 6,7 km/h (2 Bft)
24.11.2009 10:00 16,2 C 10,7 C 0,2 UV-I 0,1 C 59 % 85 % 3 % 1009,6 hPa 0,0 l/m 5,7 km/h (1 Bft) 0,00 h 8,5 km/h (2 Bft)
24.11.2009 11:00 16,4 C 11,0 C 0,1 UV-I 0,0 C 60 % 87 % 0 % 1009,9 hPa 0,7 l/m 3,8 km/h (1 Bft) 0,00 h 4,0 km/h (1 Bft)
24.11.2009 12:00 16,5 C 11,1 C 0,2 UV-I 0,0 C 62 % 92 % 1 % 1009,7 hPa 0,7 l/m 4,0 km/h (1 Bft) 0,00 h 6,2 km/h (2 Bft)
24.11.2009 13:00 16,8 C 12,8 C 0,6 UV-I 0,5 C 64 % 92 % 14 % 1009,7 hPa 0,0 l/m 8,0 km/h (2 Bft) 0,00 h 11,8 km/h (2 Bft)
24.11.2009 14:00 17,0 C 13,9 C 0,3 UV-I 0,1 C 65 % 88 % 4 % 1010,1 hPa 0,0 l/m 10,0 km/h (2 Bft) 0,00 h 13,6 km/h (3 Bft)
24.11.2009 15:00 17,0 C 13,7 C 0,0 UV-I 0,0 C 66 % 88 % 0 % 1010,5 hPa 0,0 l/m 9,7 km/h (2 Bft) 0,00 h 13,2 km/h (3 Bft)
24.11.2009 16:00 16,9 C 13,5 C 0,0 UV-I 0,0 C 66 % 88 % 0 % 1010,9 hPa 0,0 l/m 9,4 km/h (2 Bft) 0,00 h 13,3 km/h (3 Bft)
24.11.2009 17:00 16,8 C 13,5 C 0,0 UV-I 0,0 C 66 % 86 % 0 % 1011,3 hPa 0,0 l/m 10,2 km/h (2 Bft) 0,00 h 13,4 km/h (3 Bft)
24.11.2009 18:00 16,8 C 13,6 C 0,0 UV-I 0,0 C 65 % 83 % 0 % 1011,5 hPa 0,0 l/m 8,8 km/h (2 Bft) 0,00 h 12,2 km/h (2 Bft)
24.11.2009 19:00 16,9 C 13,6 C 0,0 UV-I 0,0 C 64 % 79 % 0 % 1011,5 hPa 0,0 l/m 7,9 km/h (2 Bft) 0,00 h 10,4 km/h (2 Bft)
24.11.2009 20:00 16,9 C 13,6 C 0,0 UV-I 0,0 C 63 % 79 % 0 % 1011,6 hPa 0,0 l/m 7,0 km/h (2 Bft) 0,00 h 9,8 km/h (2 Bft)
24.11.2009 21:00 17,0 C 13,6 C 0,0 UV-I 0,0 C 63 % 80 % 0 % 1011,5 hPa 0,0 l/m 6,7 km/h (2 Bft) 0,00 h 7,9 km/h (2 Bft)
24.11.2009 22:00 17,0 C 13,4 C 0,0 UV-I 0,0 C 63 % 82 % 0 % 1011,2 hPa 0,0 l/m 6,6 km/h (2 Bft) 0,00 h 8,3 km/h (2 Bft)
24.11.2009 23:00 17,0 C 12,6 C 0,0 UV-I 0,0 C 64 % 86 % 0 % 1010,8 hPa 0,4 l/m 5,2 km/h (1 Bft) 0,00 h 7,9 km/h (2 Bft)
25.11.2009 00:00 17,0 C 12,7 C 0,0 UV-I 0,0 C 63 % 81 % 0 % 1010,2 hPa 0,0 l/m 6,5 km/h (2 Bft) 0,00 h 10,3 km/h (2 Bft)
25.11.2009 01:00 17,0 C 13,0 C 0,0 UV-I 0,0 C 61 % 77 % 0 % 1009,5 hPa 0,0 l/m 8,0 km/h (2 Bft) 0,00 h 12,4 km/h (3 Bft)
25.11.2009 02:00 17,0 C 13,0 C 0,0 UV-I 0,0 C 61 % 78 % 0 % 1009,0 hPa 0,0 l/m 7,7 km/h (2 Bft) 0,00 h 11,1 km/h (2 Bft)
25.11.2009 03:00 17,0 C 13,1 C 0,0 UV-I 0,0 C 60 % 75 % 0 % 1007,9 hPa 0,0 l/m 6,9 km/h (2 Bft) 0,00 h 9,8 km/h (2 Bft)
25.11.2009 04:00 17,0 C 13,3 C 0,0 UV-I 0,0 C 58 % 71 % 0 % 1007,3 hPa 0,0 l/m 9,0 km/h (2 Bft) 0,00 h 11,6 km/h (2 Bft)
25.11.2009 05:00 17,0 C 13,2 C 0,0 UV-I 0,0 C 58 % 71 % 0 % 1007,0 hPa 0,0 l/m 9,1 km/h (2 Bft) 0,00 h 12,0 km/h (2 Bft)
25.11.2009 06:00 17,0 C 12,9 C 0,0 UV-I 0,0 C 57 % 71 % 0 % 1006,8 hPa 0,0 l/m 9,3 km/h (2 Bft) 0,00 h 12,5 km/h (3 Bft)
25.11.2009 07:00 16,9 C 12,4 C 0,0 UV-I 0,0 C 56 % 72 % 0 % 1006,7 hPa 0,0 l/m 8,0 km/h (2 Bft) 0,00 h 10,5 km/h (2 Bft)
25.11.2009 08:00 16,8 C 12,1 C 0,0 UV-I 0,0 C 56 % 72 % 0 % 1006,5 hPa 0,0 l/m 7,5 km/h (2 Bft) 0,00 h 10,5 km/h (2 Bft)
25.11.2009 09:00 16,9 C 12,3 C 0,0 UV-I 0,2 C 56 % 72 % 5 % 1006,0 hPa 0,0 l/m 6,6 km/h (2 Bft) 0,00 h 8,6 km/h (2 Bft)
25.11.2009 10:00 17,1 C 12,8 C 0,1 UV-I 0,4 C 55 % 69 % 11 % 1005,5 hPa 0,0 l/m 6,0 km/h (2 Bft) 0,00 h 9,1 km/h (2 Bft)
25.11.2009 11:00 17,2 C 13,5 C 0,1 UV-I 0,3 C 55 % 66 % 9 % 1005,1 hPa 0,0 l/m 7,4 km/h (2 Bft) 0,00 h 10,7 km/h (2 Bft)
25.11.2009 12:00 17,4 C 13,8 C 0,2 UV-I 0,0 C 55 % 69 % 0 % 1004,7 hPa 0,0 l/m 8,7 km/h (2 Bft) 0,00 h 12,1 km/h (2 Bft)
25.11.2009 13:00 17,5 C 13,4 C 0,0 UV-I 0,0 C 56 % 72 % 0 % 1004,0 hPa 0,1 l/m 8,3 km/h (2 Bft) 0,00 h 11,3 km/h (2 Bft)
25.11.2009 14:00 17,4 C 13,0 C 0,0 UV-I 0,0 C 56 % 75 % 0 % 1003,9 hPa 0,1 l/m 9,1 km/h (2 Bft) 0,00 h 11,6 km/h (2 Bft)
25.11.2009 15:00 17,3 C 11,8 C 0,0 UV-I 0,0 C 58 % 83 % 0 % 1003,7 hPa 0,1 l/m 7,3 km/h (2 Bft) 0,00 h 10,4 km/h (2 Bft)
25.11.2009 16:00 17,2 C 11,4 C 0,0 UV-I 0,0 C 59 % 86 % 0 % 1003,8 hPa 0,0 l/m 6,7 km/h (2 Bft) 0,00 h 8,9 km/h (2 Bft)
25.11.2009 17:00 17,2 C 10,4 C 0,0 UV-I 0,0 C 59 % 89 % 0 % 1004,2 hPa 2,3 l/m 7,1 km/h (2 Bft) 0,00 h 9,7 km/h (2 Bft)
25.11.2009 18:00 17,0 C 9,9 C 0,0 UV-I 0,0 C 60 % 90 % 0 % 1004,1 hPa 0,1 l/m 5,4 km/h (1 Bft) 0,00 h 7,2 km/h (2 Bft)
25.11.2009 19:00 17,0 C 10,0 C 0,0 UV-I 0,0 C 60 % 89 % 0 % 1004,4 hPa 0,0 l/m 5,0 km/h (1 Bft) 0,00 h 7,4 km/h (2 Bft)
25.11.2009 20:00 16,8 C 9,8 C 0,0 UV-I 0,0 C 58 % 85 % 0 % 1004,9 hPa 0,0 l/m 5,8 km/h (2 Bft) 0,00 h 8,4 km/h (2 Bft)
25.11.2009 21:00 16,7 C 9,6 C 0,0 UV-I 0,0 C 58 % 86 % 0 % 1005,1 hPa 0,0 l/m 6,0 km/h (2 Bft) 0,00 h 7,8 km/h (2 Bft)
25.11.2009 22:00 16,6 C 9,6 C 0,0 UV-I 0,0 C 57 % 84 % 0 % 1005,5 hPa 0,0 l/m 7,4 km/h (2 Bft) 0,00 h 11,4 km/h (2 Bft)
25.11.2009 23:00 16,5 C 9,4 C 0,0 UV-I 0,0 C 57 % 83 % 0 % 1005,7 hPa 0,0 l/m 8,0 km/h (2 Bft) 0,00 h 12,0 km/h (2 Bft)
26.11.2009 00:00 16,3 C 9,2 C 0,0 UV-I 0,0 C 56 % 82 % 0 % 1005,8 hPa 0,0 l/m 8,7 km/h (2 Bft) 0,00 h 11,8 km/h (2 Bft)
26.11.2009 01:00 16,3 C 9,3 C 0,0 UV-I 0,0 C 55 % 81 % 0 % 1006,4 hPa 0,0 l/m 8,3 km/h (2 Bft) 0,00 h 12,0 km/h (2 Bft)
26.11.2009 02:00 16,3 C 9,4 C 0,0 UV-I 0,0 C 55 % 81 % 0 % 1006,9 hPa 0,0 l/m 8,2 km/h (2 Bft) 0,00 h 11,8 km/h (2 Bft)
26.11.2009 03:00 16,2 C 9,1 C 0,0 UV-I 0,0 C 55 % 81 % 0 % 1007,2 hPa 0,0 l/m 6,9 km/h (2 Bft) 0,00 h 10,8 km/h (2 Bft)
26.11.2009 04:00 16,2 C 8,8 C 0,0 UV-I 0,0 C 55 % 81 % 0 % 1007,4 hPa 0,0 l/m 6,4 km/h (2 Bft) 0,00 h 8,8 km/h (2 Bft)
26.11.2009 05:00 16,2 C 8,7 C 0,0 UV-I 0,0 C 55 % 82 % 0 % 1007,1 hPa 0,0 l/m 4,5 km/h (1 Bft) 0,00 h 6,5 km/h (2 Bft)
26.11.2009 06:00 16,2 C 8,7 C 0,0 UV-I 0,0 C 54 % 82 % 0 % 1007,0 hPa 0,0 l/m 4,5 km/h (1 Bft) 0,00 h 6,9 km/h (2 Bft)
26.11.2009 07:00 16,2 C 9,1 C 0,0 UV-I 0,0 C 54 % 81 % 0 % 1006,7 hPa 0,0 l/m 6,1 km/h (2 Bft) 0,00 h 8,9 km/h (2 Bft)
26.11.2009 08:00 16,2 C 9,3 C 0,0 UV-I 0,0 C 54 % 80 % 0 % 1007,2 hPa 0,0 l/m 7,5 km/h (2 Bft) 0,00 h 10,0 km/h (2 Bft)
26.11.2009 09:00 16,2 C 9,5 C 0,3 UV-I 0,1 C 53 % 78 % 3 % 1007,4 hPa 0,0 l/m 8,1 km/h (2 Bft) 0,00 h 11,4 km/h (2 Bft)
26.11.2009 10:00 16,2 C 10,1 C 0,9 UV-I 2,3 C 53 % 74 % 65 % 1007,1 hPa 0,0 l/m 9,7 km/h (2 Bft) 0,63 h 14,9 km/h (3 Bft)
26.11.2009 11:00 16,4 C 10,7 C 0,7 UV-I 0,3 C 52 % 72 % 8 % 1006,9 hPa 0,0 l/m 9,6 km/h (2 Bft) 0,00 h 14,0 km/h (3 Bft)
26.11.2009 12:00 16,4 C 10,9 C 0,4 UV-I 0,0 C 52 % 71 % 0 % 1006,7 hPa 0,0 l/m 11,0 km/h (2 Bft) 0,00 h 17,5 km/h (3 Bft)
26.11.2009 13:00 16,4 C 11,0 C 0,1 UV-I 0,0 C 51 % 70 % 0 % 1006,3 hPa 0,0 l/m 9,6 km/h (2 Bft) 0,00 h 13,8 km/h (3 Bft)
26.11.2009 14:00 16,6 C 11,0 C 0,6 UV-I 0,0 C 51 % 71 % 1 % 1006,3 hPa 0,0 l/m 10,4 km/h (2 Bft) 0,00 h 15,0 km/h (3 Bft)
26.11.2009 15:00 16,7 C 11,2 C 0,1 UV-I 0,1 C 51 % 68 % 2 % 1006,0 hPa 0,0 l/m 9,4 km/h (2 Bft) 0,00 h 14,1 km/h (3 Bft)
26.11.2009 16:00 16,6 C 10,7 C 0,0 UV-I 0,0 C 50 % 70 % 0 % 1005,9 hPa 0,0 l/m 9,7 km/h (2 Bft) 0,00 h 14,1 km/h (3 Bft)
26.11.2009 17:00 16,4 C 10,2 C 0,0 UV-I 0,0 C 50 % 72 % 0 % 1005,7 hPa 0,0 l/m 7,7 km/h (2 Bft) 0,00 h 9,7 km/h (2 Bft)
26.11.2009 18:00 16,2 C 9,9 C 0,0 UV-I 0,0 C 51 % 74 % 0 % 1005,5 hPa 0,0 l/m 5,3 km/h (1 Bft) 0,00 h 6,5 km/h (2 Bft)
26.11.2009 19:00 16,3 C 9,6 C 0,0 UV-I 0,0 C 51 % 75 % 0 % 1005,5 hPa 0,0 l/m 5,6 km/h (1 Bft) 0,00 h 8,7 km/h (2 Bft)
26.11.2009 20:00 16,2 C 8,7 C 0,0 UV-I 0,0 C 53 % 82 % 0 % 1005,3 hPa 1,2 l/m 2,4 km/h (1 Bft) 0,00 h 3,7 km/h (1 Bft)
26.11.2009 21:00 16,1 C 8,2 C 0,0 UV-I 0,0 C 54 % 85 % 0 % 1004,6 hPa 0,0 l/m 4,4 km/h (1 Bft) 0,00 h 6,5 km/h (2 Bft)
26.11.2009 22:00 16,1 C 9,2 C 0,0 UV-I 0,0 C 55 % 86 % 0 % 1004,2 hPa 1,6 l/m 6,0 km/h (2 Bft) 0,00 h 8,7 km/h (2 Bft)
26.11.2009 23:00 16,0 C 8,6 C 0,0 UV-I 0,0 C 56 % 89 % 0 % 1003,7 hPa 5,3 l/m 7,2 km/h (2 Bft) 0,00 h 11,5 km/h (2 Bft)
27.11.2009 00:00 15,7 C 7,6 C 0,0 UV-I 0,0 C 57 % 89 % 0 % 1004,0 hPa 3,0 l/m 5,5 km/h (1 Bft) 0,00 h 7,5 km/h (2 Bft)
27.11.2009 01:00 15,6 C 6,8 C 0,0 UV-I 0,0 C 57 % 90 % 0 % 1003,6 hPa 0,1 l/m 1,2 km/h (1 Bft) 0,00 h 2,3 km/h (1 Bft)
27.11.2009 02:00 15,6 C 6,4 C 0,0 UV-I 0,0 C 57 % 92 % 0 % 1002,6 hPa 0,0 l/m 3,5 km/h (1 Bft) 0,00 h 5,7 km/h (1 Bft)
27.11.2009 03:00 15,8 C 6,5 C 0,0 UV-I 0,0 C 57 % 93 % 0 % 1001,7 hPa 0,0 l/m 3,2 km/h (1 Bft) 0,00 h 4,8 km/h (1 Bft)
27.11.2009 04:00 15,8 C 6,4 C 0,0 UV-I 0,0 C 57 % 94 % 0 % 1000,5 hPa 0,0 l/m 3,9 km/h (1 Bft) 0,00 h 5,3 km/h (1 Bft)
27.11.2009 05:00 15,8 C 7,0 C 0,0 UV-I 0,1 C 57 % 94 % 0 % 999,3 hPa 0,1 l/m 5,3 km/h (1 Bft) 0,00 h 7,2 km/h (2 Bft)
27.11.2009 06:00 15,9 C 7,7 C 0,0 UV-I 0,0 C 57 % 92 % 0 % 998,5 hPa 2,6 l/m 6,8 km/h (2 Bft) 0,00 h 9,0 km/h (2 Bft)
27.11.2009 07:00 15,5 C 7,4 C 0,0 UV-I 0,0 C 57 % 91 % 0 % 998,1 hPa 3,2 l/m 8,0 km/h (2 Bft) 0,00 h 12,0 km/h (2 Bft)
27.11.2009 08:00 15,4 C 7,2 C 0,0 UV-I 0,0 C 57 % 90 % 0 % 997,8 hPa 0,2 l/m 6,4 km/h (2 Bft) 0,00 h 8,1 km/h (2 Bft)
27.11.2009 09:00 15,3 C 7,6 C 0,0 UV-I 0,0 C 57 % 89 % 0 % 998,1 hPa 0,0 l/m 10,9 km/h (2 Bft) 0,00 h 15,7 km/h (3 Bft)
27.11.2009 10:00 15,1 C 7,9 C 0,5 UV-I 0,2 C 56 % 85 % 7 % 1000,0 hPa 0,0 l/m 11,9 km/h (2 Bft) 0,00 h 17,5 km/h (3 Bft)
27.11.2009 11:00 15,3 C 8,5 C 1,3 UV-I 1,5 C 55 % 82 % 42 % 1001,5 hPa 0,0 l/m 11,3 km/h (2 Bft) 0,17 h 19,6 km/h (3 Bft)
27.11.2009 12:00 15,5 C 9,1 C 1,3 UV-I 0,6 C 54 % 80 % 17 % 1001,7 hPa 0,0 l/m 10,8 km/h (2 Bft) 0,00 h 14,5 km/h (3 Bft)
27.11.2009 13:00 15,8 C 9,8 C 1,4 UV-I 1,3 C 53 % 75 % 36 % 1002,4 hPa 0,0 l/m 12,5 km/h (3 Bft) 0,17 h 17,1 km/h (3 Bft)
27.11.2009 14:00 15,9 C 9,3 C 0,9 UV-I 0,0 C 52 % 75 % 0 % 1002,8 hPa 0,0 l/m 11,5 km/h (2 Bft) 0,00 h 13,9 km/h (3 Bft)
27.11.2009 15:00 15,8 C 8,2 C 0,3 UV-I 0,0 C 52 % 80 % 1 % 1002,9 hPa 0,6 l/m 6,9 km/h (2 Bft) 0,00 h 8,4 km/h (2 Bft)
27.11.2009 16:00 15,7 C 7,8 C 0,0 UV-I 0,0 C 52 % 82 % 0 % 1002,5 hPa 0,0 l/m 5,0 km/h (1 Bft) 0,00 h 6,6 km/h (2 Bft)
27.11.2009 17:00 15,6 C 7,9 C 0,0 UV-I 0,0 C 52 % 81 % 0 % 1002,6 hPa 0,0 l/m 6,5 km/h (2 Bft) 0,00 h 10,4 km/h (2 Bft)
27.11.2009 18:00 15,4 C 8,1 C 0,0 UV-I 0,0 C 52 % 79 % 0 % 1002,8 hPa 0,0 l/m 7,6 km/h (2 Bft) 0,00 h 11,7 km/h (2 Bft)
27.11.2009 19:00 15,4 C 8,3 C 0,0 UV-I 0,0 C 52 % 77 % 0 % 1002,9 hPa 0,0 l/m 7,3 km/h (2 Bft) 0,00 h 10,8 km/h (2 Bft)
27.11.2009 20:00 15,4 C 8,5 C 0,0 UV-I 0,0 C 51 % 76 % 0 % 1003,3 hPa 0,0 l/m 6,3 km/h (2 Bft) 0,00 h 8,9 km/h (2 Bft)
27.11.2009 21:00 15,5 C 8,7 C 0,0 UV-I 0,0 C 51 % 76 % 0 % 1003,5 hPa 0,0 l/m 7,1 km/h (2 Bft) 0,00 h 10,0 km/h (2 Bft)
27.11.2009 22:00 15,5 C 8,5 C 0,0 UV-I 0,0 C 51 % 76 % 0 % 1003,5 hPa 0,0 l/m 6,7 km/h (2 Bft) 0,00 h 9,4 km/h (2 Bft)
27.11.2009 23:00 15,4 C 8,3 C 0,0 UV-I 0,0 C 51 % 77 % 0 % 1003,4 hPa 0,0 l/m 6,6 km/h (2 Bft) 0,00 h 9,4 km/h (2 Bft)
28.11.2009 00:00 15,4 C 8,2 C 0,0 UV-I 0,0 C 51 % 78 % 0 % 1003,6 hPa 0,0 l/m 6,5 km/h (2 Bft) 0,00 h 9,5 km/h (2 Bft)
28.11.2009 01:00 15,4 C 8,2 C 0,0 UV-I 0,0 C 51 % 78 % 0 % 1003,5 hPa 0,0 l/m 5,1 km/h (1 Bft) 0,00 h 6,7 km/h (2 Bft)
28.11.2009 02:00 15,4 C 8,1 C 0,0 UV-I 0,0 C 51 % 79 % 0 % 1003,6 hPa 0,0 l/m 4,8 km/h (1 Bft) 0,00 h 7,2 km/h (2 Bft)
28.11.2009 03:00 15,5 C 8,0 C 0,0 UV-I 0,0 C 51 % 79 % 0 % 1003,3 hPa 0,0 l/m 4,0 km/h (1 Bft) 0,00 h 7,6 km/h (2 Bft)
28.11.2009 04:00 15,4 C 8,1 C 0,0 UV-I 0,0 C 51 % 79 % 0 % 1003,3 hPa 0,0 l/m 5,8 km/h (2 Bft) 0,00 h 9,4 km/h (2 Bft)
28.11.2009 05:00 15,5 C 8,0 C 0,0 UV-I 0,0 C 51 % 79 % 0 % 1003,0 hPa 0,0 l/m 4,5 km/h (1 Bft) 0,00 h 5,8 km/h (2 Bft)
28.11.2009 06:00 15,4 C 7,5 C 0,0 UV-I 0,0 C 51 % 80 % 0 % 1002,5 hPa 0,0 l/m 4,0 km/h (1 Bft) 0,00 h 6,7 km/h (2 Bft)
28.11.2009 07:00 15,4 C 7,3 C 0,0 UV-I 0,0 C 51 % 80 % 0 % 1001,9 hPa 0,0 l/m 7,9 km/h (2 Bft) 0,00 h 10,7 km/h (2 Bft)
28.11.2009 08:00 15,3 C 7,7 C 0,0 UV-I 0,0 C 51 % 79 % 0 % 1001,1 hPa 0,0 l/m 8,9 km/h (2 Bft) 0,00 h 12,8 km/h (3 Bft)
28.11.2009 09:00 15,0 C 8,1 C 0,0 UV-I 0,0 C 52 % 82 % 0 % 1000,5 hPa 0,6 l/m 8,2 km/h (2 Bft) 0,00 h 10,5 km/h (2 Bft)
28.11.2009 10:00 14,9 C 8,1 C 0,0 UV-I 0,0 C 55 % 86 % 0 % 999,4 hPa 0,8 l/m 7,7 km/h (2 Bft) 0,00 h 10,5 km/h (2 Bft)
28.11.2009 11:00 14,5 C 8,5 C 0,1 UV-I 0,0 C 57 % 85 % 0 % 999,0 hPa 0,4 l/m 7,6 km/h (2 Bft) 0,00 h 10,0 km/h (2 Bft)
28.11.2009 12:00 14,2 C 9,1 C 0,1 UV-I 0,0 C 57 % 83 % 0 % 998,2 hPa 0,0 l/m 8,6 km/h (2 Bft) 0,00 h 11,4 km/h (2 Bft)
28.11.2009 13:00 14,3 C 9,8 C 0,4 UV-I 0,1 C 58 % 82 % 2 % 997,6 hPa 0,0 l/m 10,2 km/h (2 Bft) 0,00 h 14,4 km/h (3 Bft)
28.11.2009 14:00 14,3 C 9,8 C 0,2 UV-I 0,0 C 58 % 82 % 0 % 997,5 hPa 1,1 l/m 9,9 km/h (2 Bft) 0,00 h 14,7 km/h (3 Bft)
28.11.2009 15:00 14,2 C 9,4 C 0,0 UV-I 0,0 C 58 % 83 % 0 % 997,0 hPa 0,0 l/m 7,2 km/h (2 Bft) 0,00 h 10,1 km/h (2 Bft)
28.11.2009 16:00 14,2 C 9,7 C 0,0 UV-I 0,0 C 59 % 82 % 0 % 997,1 hPa 0,0 l/m 8,7 km/h (2 Bft) 0,00 h 11,8 km/h (2 Bft)
28.11.2009 17:00 14,0 C 9,7 C 0,0 UV-I 0,0 C 59 % 82 % 0 % 997,2 hPa 0,0 l/m 8,4 km/h (2 Bft) 0,00 h 11,2 km/h (2 Bft)
28.11.2009 18:00 14,0 C 9,7 C 0,0 UV-I 0,0 C 60 % 83 % 0 % 997,4 hPa 0,0 l/m 6,8 km/h (2 Bft) 0,00 h 9,5 km/h (2 Bft)
28.11.2009 19:00 14,0 C 9,9 C 0,0 UV-I 0,0 C 61 % 84 % 0 % 997,4 hPa 0,0 l/m 6,4 km/h (2 Bft) 0,00 h 8,5 km/h (2 Bft)
28.11.2009 20:00 14,0 C 10,0 C 0,0 UV-I 0,0 C 62 % 85 % 0 % 997,5 hPa 0,2 l/m 6,7 km/h (2 Bft) 0,00 h 9,6 km/h (2 Bft)
28.11.2009 21:00 14,1 C 9,8 C 0,0 UV-I 0,0 C 64 % 89 % 0 % 997,2 hPa 1,5 l/m 6,1 km/h (2 Bft) 0,00 h 8,3 km/h (2 Bft)
28.11.2009 22:00 14,1 C 9,5 C 0,0 UV-I 0,0 C 65 % 90 % 0 % 996,8 hPa 0,8 l/m 4,4 km/h (1 Bft) 0,00 h 6,0 km/h (2 Bft)
28.11.2009 23:00 14,3 C 9,3 C 0,0 UV-I 0,0 C 65 % 92 % 0 % 996,3 hPa 0,6 l/m 6,1 km/h (2 Bft) 0,00 h 7,7 km/h (2 Bft)
29.11.2009 00:00 14,2 C 9,8 C 0,0 UV-I 0,0 C 64 % 87 % 0 % 995,9 hPa 0,2 l/m 7,8 km/h (2 Bft) 0,00 h 13,8 km/h (3 Bft)
29.11.2009 01:00 14,1 C 10,5 C 0,0 UV-I 0,0 C 62 % 79 % 0 % 995,5 hPa 0,0 l/m 8,2 km/h (2 Bft) 0,00 h 11,3 km/h (2 Bft)
29.11.2009 02:00 14,2 C 10,5 C 0,0 UV-I 0,0 C 60 % 78 % 0 % 995,5 hPa 0,0 l/m 8,3 km/h (2 Bft) 0,00 h 13,7 km/h (3 Bft)
29.11.2009 03:00 14,2 C 10,2 C 0,0 UV-I 0,0 C 60 % 79 % 0 % 995,0 hPa 0,0 l/m 5,7 km/h (1 Bft) 0,00 h 9,8 km/h (2 Bft)
29.11.2009 04:00 14,2 C 10,4 C 0,0 UV-I 0,0 C 59 % 76 % 0 % 994,8 hPa 0,0 l/m 6,4 km/h (2 Bft) 0,00 h 8,2 km/h (2 Bft)
29.11.2009 05:00 14,3 C 10,5 C 0,0 UV-I 0,0 C 58 % 75 % 0 % 994,7 hPa 0,0 l/m 7,1 km/h (2 Bft) 0,00 h 9,4 km/h (2 Bft)
29.11.2009 06:00 14,3 C 10,4 C 0,0 UV-I 0,0 C 58 % 76 % 0 % 994,4 hPa 0,0 l/m 7,4 km/h (2 Bft) 0,00 h 9,7 km/h (2 Bft)
29.11.2009 07:00 14,5 C 10,1 C 0,0 UV-I 0,0 C 57 % 76 % 0 % 994,4 hPa 0,0 l/m 8,0 km/h (2 Bft) 0,00 h 10,5 km/h (2 Bft)
29.11.2009 08:00 14,6 C 10,0 C 0,0 UV-I 0,0 C 56 % 74 % 0 % 994,3 hPa 0,0 l/m 10,0 km/h (2 Bft) 0,00 h 13,7 km/h (3 Bft)
29.11.2009 09:00 14,6 C 9,8 C 0,0 UV-I 0,0 C 56 % 75 % 0 % 994,1 hPa 0,0 l/m 7,7 km/h (2 Bft) 0,00 h 10,3 km/h (2 Bft)
29.11.2009 10:00 14,6 C 10,0 C 0,3 UV-I 0,0 C 55 % 74 % 0 % 994,1 hPa 0,0 l/m 11,3 km/h (2 Bft) 0,00 h 15,9 km/h (3 Bft)
29.11.2009 11:00 14,7 C 10,6 C 0,0 UV-I 0,0 C 55 % 73 % 0 % 994,1 hPa 0,0 l/m 13,3 km/h (3 Bft) 0,00 h 17,0 km/h (3 Bft)
29.11.2009 12:00 14,7 C 11,3 C 0,0 UV-I 0,0 C 56 % 72 % 0 % 994,0 hPa 0,0 l/m 7,3 km/h (2 Bft) 0,00 h 11,1 km/h (2 Bft)
29.11.2009 13:00 14,8 C 11,8 C 0,4 UV-I 0,1 C 56 % 70 % 1 % 994,0 hPa 0,0 l/m 8,0 km/h (2 Bft) 0,00 h 13,6 km/h (3 Bft)
29.11.2009 14:00 15,2 C 11,8 C 0,2 UV-I 0,0 C 55 % 70 % 0 % 993,8 hPa 0,0 l/m 5,8 km/h (2 Bft) 0,00 h 7,8 km/h (2 Bft)
29.11.2009 15:00 15,4 C 11,6 C 0,1 UV-I 0,0 C 55 % 71 % 0 % 993,9 hPa 0,0 l/m 4,9 km/h (1 Bft) 0,00 h 6,3 km/h (2 Bft)
29.11.2009 16:00 15,5 C 11,1 C 0,0 UV-I 0,0 C 55 % 73 % 0 % 993,7 hPa 0,0 l/m 5,2 km/h (1 Bft) 0,00 h 7,0 km/h (2 Bft)
29.11.2009 17:00 15,4 C 10,6 C 0,0 UV-I 0,0 C 55 % 75 % 0 % 993,8 hPa 0,0 l/m 5,2 km/h (1 Bft) 0,00 h 6,9 km/h (2 Bft)
29.11.2009 18:00 15,6 C 10,4 C 0,0 UV-I 0,0 C 55 % 76 % 0 % 993,6 hPa 0,0 l/m 6,1 km/h (2 Bft) 0,00 h 8,1 km/h (2 Bft)
29.11.2009 19:00 15,6 C 10,2 C 0,0 UV-I 0,0 C 55 % 76 % 0 % 993,8 hPa 0,0 l/m 8,9 km/h (2 Bft) 0,00 h 12,0 km/h (2 Bft)
29.11.2009 20:00 15,5 C 9,9 C 0,0 UV-I 0,0 C 55 % 77 % 0 % 994,5 hPa 0,0 l/m 8,5 km/h (2 Bft) 0,00 h 11,2 km/h (2 Bft)
29.11.2009 21:00 15,4 C 9,6 C 0,0 UV-I 0,0 C 55 % 77 % 0 % 994,3 hPa 0,0 l/m 7,3 km/h (2 Bft) 0,00 h 8,9 km/h (2 Bft)
29.11.2009 22:00 15,5 C 9,5 C 0,0 UV-I 0,0 C 55 % 77 % 0 % 994,3 hPa 0,0 l/m 6,3 km/h (2 Bft) 0,00 h 8,6 km/h (2 Bft)
29.11.2009 23:00 15,4 C 9,2 C 0,0 UV-I 0,0 C 54 % 76 % 0 % 994,1 hPa 0,0 l/m 5,7 km/h (1 Bft) 0,00 h 7,9 km/h (2 Bft)
Min-Datum _ 28.11.09 27.11.09 23.11.09 23.11.09 26.11.09 25.11.09 23.11.09 29.11.09 - 27.11.09 - 24.11.09
_ Min-Zeit 17:34 02:18 00:00 00:00 15:48 11:38 00:00 18:14 - 01:16 - 05:26
Minimum _ 13,9 C 6,2 C 0,0 UV-I 0,0 C 50 % 65 % 0 % 993,4 hPa - 0,2 km/h (0 Bft) - 0,0 km/h (0 Bft)
Max-Datum _ 25.11.09 24.11.09 27.11.09 26.11.09 23.11.09 27.11.09 26.11.09 24.11.09 23.11.09 23.11.09 26.11.09 29.11.09
_ Max-Zeit 12:46 14:30 11:50 10:50 18:50 05:32 10:50 20:34 19:36 13:48 10:02 13:40
Maximum _ 17,5 C 14,1 C 1,8 UV-I 3,4 C 67 % 95 % 97 % 1011,7 hPa 6,1 l/m 17,3 km/h
NO (3 Bft)
0,03 h 46,7 km/h
NO (6 Bft)
Durchschnitt _ 15,8 C 10,2 C 0,1 UV-I 0,0 C 57 % 81 % 1 % 1002,7 hPa #58,1 l/m 7,8 km/h (2 Bft) #58 min. 10,9 km/h (2 Bft)
© 2012 W. Hausmann